Palma de Mallorca Aeropuerto en Baleares

latitud = 39° 33' 39''N | longitud = 002° 44' 12''E
8 metros sobre el nivel del mar |

Fecha, hora, temperatura, viento dirección y velocidad, humedad y presión.

  • 16-07-2018 13:00:00 | 31.70°C | Oeste |34.00 km/h | 51.00% | 1011.80 hPa
  • 16-07-2018 12:00:00 | 31.90°C | Oeste |19.00 km/h | 43.00% | 1010.90 hPa
  • 16-07-2018 11:00:00 | 30.90°C | Noroeste |21.00 km/h | 51.00% | 1010.40 hPa
  • 16-07-2018 10:00:00 | 29.00°C | Sudoeste |25.00 km/h | 68.00% | 1009.90 hPa
  • 16-07-2018 09:00:00 | 27.10°C | Sudoeste |26.00 km/h | 75.00% | 1010.20 hPa
  • 16-07-2018 08:00:00 | 26.50°C | Sudoeste |23.00 km/h | 76.00% | 1010.10 hPa
  • 16-07-2018 07:00:00 | 26.20°C | Sudoeste |21.00 km/h | 73.00% | 1010.00 hPa
  • 16-07-2018 06:00:00 | 26.20°C | Sudoeste |23.00 km/h | 72.00% | 1010.80 hPa
  • 16-07-2018 05:00:00 | 26.00°C | Sudoeste |31.00 km/h | 79.00% | 1011.30 hPa
  • 16-07-2018 04:00:00 | 25.60°C | Sur |24.00 km/h | 82.00% | 1009.90 hPa
  • 16-07-2018 03:00:00 | 26.40°C | Sudoeste |21.00 km/h | 77.00% | 1012.70 hPa
  • 16-07-2018 02:00:00 | 26.50°C | Sudoeste |16.00 km/h | 78.00% | 1012.60 hPa
  • 16-07-2018 01:00:00 | 26.30°C | Sur |8.00 km/h | 82.00% | 1012.90 hPa
  • 16-07-2018 00:00:00 | 26.60°C | Sur |12.00 km/h | 80.00% | 1012.00 hPa
  • 15-07-2018 23:00:00 | 26.80°C | Sudoeste |17.00 km/h | 83.00% | 1014.50 hPa
  • 15-07-2018 22:00:00 | 25.80°C | Noroeste |5.00 km/h | 84.00% | 1012.00 hPa
  • 15-07-2018 21:00:00 | 26.80°C | Oeste |12.00 km/h | 80.00% | 1012.30 hPa
  • 15-07-2018 20:00:00 | 28.20°C | Oeste |18.00 km/h | 68.00% | 1012.20 hPa
  • 15-07-2018 19:00:00 | 28.40°C | Sudoeste |15.00 km/h | 73.00% | 1013.30 hPa
  • 15-07-2018 18:00:00 | 28.80°C | Sudoeste |19.00 km/h | 69.00% | 1013.90 hPa
  • 15-07-2018 17:00:00 | 29.80°C | Sudoeste |23.00 km/h | 66.00% | 1013.60 hPa
  • 15-07-2018 16:00:00 | 29.90°C | Sudoeste |26.00 km/h | 64.00% | 1013.90 hPa
  • 15-07-2018 15:00:00 | 29.90°C | Sudoeste |27.00 km/h | 65.00% | 1014.40 hPa
  • 15-07-2018 14:00:00 | 30.30°C | Sudoeste |22.00 km/h | 62.00% | 1015.10 hPa
    • Datos gráficos mensuales de Palma de Mallorca Aeropuerto: